createdAt,value
2018-07-19T00:16:32.948Z,84.98
2018-07-19T00:19:03.394Z,85.28
2018-07-19T00:21:33.466Z,86.24
2018-07-19T00:24:03.361Z,86.34
2018-07-19T00:26:33.910Z,85.77
2018-07-19T00:29:04.009Z,85.95
2018-07-19T00:31:34.252Z,87.00
2018-07-19T00:34:04.623Z,87.01
2018-07-19T00:36:34.938Z,87.60
2018-07-19T00:39:06.703Z,88.15
2018-07-19T00:41:37.055Z,87.87
2018-07-19T00:44:08.761Z,88.13
2018-07-19T00:46:39.705Z,88.46
2018-07-19T00:49:10.284Z,86.93
2018-07-19T00:51:40.775Z,86.44
2018-07-19T00:54:11.113Z,86.83
2018-07-19T00:56:41.649Z,86.66
2018-07-19T00:59:12.043Z,87.06
2018-07-19T01:01:42.435Z,87.58
2018-07-19T01:04:12.536Z,87.50
2018-07-19T01:06:42.703Z,86.86
2018-07-19T01:09:13.419Z,87.85
2018-07-19T01:11:43.702Z,87.48
2018-07-19T01:14:14.326Z,87.94
2018-07-19T01:16:45.907Z,88.03
2018-07-19T01:19:16.196Z,87.95
2018-07-19T01:21:46.831Z,87.04
2018-07-19T01:24:17.374Z,87.54
2018-07-19T01:26:47.670Z,87.73
2018-07-19T01:29:17.562Z,87.12
2018-07-19T01:31:48.020Z,86.60
2018-07-19T01:34:18.574Z,86.85
2018-07-19T01:36:48.930Z,86.10
2018-07-19T01:39:18.933Z,86.07
2018-07-19T01:42:27.456Z,87.21
2018-07-19T01:44:58.507Z,86.40
2018-07-19T01:47:28.733Z,86.27
2018-07-19T01:49:59.355Z,86.00
2018-07-19T01:52:29.991Z,86.51
2018-07-19T01:55:00.852Z,86.97
2018-07-19T01:57:31.531Z,86.71
2018-07-19T02:00:01.800Z,86.34
2018-07-19T02:02:32.206Z,87.17
2018-07-19T02:05:02.769Z,87.72
2018-07-19T02:07:33.581Z,86.82
2018-07-19T02:10:03.757Z,86.68
2018-07-19T02:12:34.310Z,86.71
2018-07-19T02:15:04.714Z,86.37
2018-07-19T02:17:34.985Z,86.13
2018-07-19T02:20:05.495Z,86.68
2018-07-19T02:22:35.659Z,87.23
2018-07-19T02:25:06.023Z,88.61
2018-07-19T02:27:36.616Z,88.86
2018-07-19T02:30:06.542Z,89.78
2018-07-19T02:32:37.267Z,88.67
2018-07-19T02:35:07.881Z,88.33
2018-07-19T02:37:38.245Z,88.03
2018-07-19T02:40:08.430Z,87.86
2018-07-19T02:42:39.247Z,88.06
2018-07-19T02:45:10.008Z,87.97
2018-07-19T02:47:40.475Z,87.65
2018-07-19T02:50:10.626Z,87.71
2018-07-19T02:52:41.266Z,87.62
2018-07-19T02:55:12.003Z,87.61
2018-07-19T02:57:42.384Z,86.94
2018-07-19T03:00:12.809Z,87.23
2018-07-19T03:02:43.410Z,88.13
2018-07-19T03:05:13.540Z,88.05
2018-07-19T03:07:43.674Z,86.79
2018-07-19T03:10:14.139Z,86.47
2018-07-19T03:12:44.209Z,86.30
2018-07-19T03:15:15.010Z,86.62
2018-07-19T03:17:45.495Z,86.45
2018-07-19T03:20:15.820Z,85.20
2018-07-19T03:22:45.963Z,85.75
2018-07-19T03:25:16.330Z,85.56
2018-07-19T03:27:52.523Z,84.82
2018-07-19T03:30:22.522Z,84.83
2018-07-19T03:32:53.916Z,84.02
2018-07-19T03:35:24.281Z,83.84
2018-07-19T03:37:55.123Z,83.14
2018-07-19T03:40:25.184Z,83.15
2018-07-19T03:42:55.318Z,82.85
2018-07-19T03:45:25.619Z,82.61
2018-07-19T03:47:55.926Z,82.08
2018-07-19T03:50:26.360Z,82.67
2018-07-19T03:52:56.419Z,83.37
2018-07-19T03:55:27.191Z,82.46
2018-07-19T03:57:57.369Z,80.97
2018-07-19T04:00:27.574Z,81.47
2018-07-19T04:02:58.006Z,82.46
2018-07-19T04:05:28.578Z,80.54
2018-07-19T04:07:58.798Z,80.08
2018-07-19T04:10:29.209Z,79.17
2018-07-19T04:12:59.466Z,78.56
2018-07-19T04:15:30.098Z,79.05
2018-07-19T04:18:00.625Z,78.59
2018-07-19T04:20:31.827Z,78.38
2018-07-19T04:23:02.171Z,78.35
2018-07-19T04:25:32.648Z,77.69
2018-07-19T04:28:02.517Z,77.44
2018-07-19T04:30:33.062Z,77.61
2018-07-19T04:33:03.517Z,77.10
2018-07-19T04:35:33.709Z,77.22
2018-07-19T04:38:03.946Z,76.85
2018-07-19T04:40:34.392Z,77.15
2018-07-19T04:43:05.498Z,77.48
2018-07-19T04:45:35.778Z,78.23
2018-07-19T04:48:06.452Z,77.98
2018-07-19T04:50:36.657Z,77.65
2018-07-19T04:53:07.263Z,77.24
2018-07-19T04:55:37.218Z,77.79
2018-07-19T04:58:07.309Z,76.76
2018-07-19T05:00:38.118Z,75.28
2018-07-19T05:03:08.079Z,74.68
2018-07-19T05:05:38.546Z,74.61
2018-07-19T05:08:09.307Z,73.91
2018-07-19T05:10:39.866Z,73.82
2018-07-19T05:13:10.925Z,74.35
2018-07-19T05:15:41.992Z,74.02
2018-07-19T05:18:12.369Z,74.22
2018-07-19T05:20:42.653Z,73.34
2018-07-19T05:23:12.953Z,72.78
2018-07-19T05:25:43.406Z,73.36
2018-07-19T05:28:13.329Z,72.69
2018-07-19T05:30:43.589Z,72.94
2018-07-19T05:33:13.539Z,72.01
2018-07-19T05:35:43.560Z,72.64
2018-07-19T05:38:13.632Z,73.34
2018-07-19T05:40:43.936Z,73.11
2018-07-19T05:43:14.213Z,71.42
2018-07-19T05:45:44.352Z,71.81
2018-07-19T05:48:14.235Z,71.60
2018-07-19T05:50:44.355Z,71.56
2018-07-19T05:53:14.483Z,70.91
2018-07-19T05:55:45.110Z,72.45
2018-07-19T05:58:15.119Z,71.13
2018-07-19T06:00:45.472Z,70.33
2018-07-19T06:03:15.524Z,69.91
2018-07-19T06:05:45.895Z,69.73
2018-07-19T06:08:16.612Z,70.15
2018-07-19T06:10:46.732Z,69.69
2018-07-19T06:13:16.791Z,69.98
2018-07-19T06:15:46.799Z,69.93
2018-07-19T06:18:16.800Z,69.01
2018-07-19T06:20:46.995Z,70.65
2018-07-19T06:23:16.851Z,69.23
2018-07-19T06:25:46.832Z,64.49
2018-07-19T06:28:16.965Z,67.52
2018-07-19T06:30:46.665Z,64.59
2018-07-19T06:33:16.596Z,66.28
2018-07-19T06:35:46.936Z,66.64
2018-07-19T06:38:17.445Z,66.64
2018-07-19T06:40:47.840Z,66.88
2018-07-19T06:43:17.988Z,67.10
2018-07-19T06:45:47.871Z,66.38
2018-07-19T06:48:18.176Z,65.53
2018-07-19T06:50:48.074Z,65.76
2018-07-19T06:53:18.097Z,64.38
2018-07-19T06:55:48.321Z,64.70
2018-07-19T06:58:18.147Z,64.65
2018-07-19T07:00:48.356Z,64.56
2018-07-19T07:03:18.757Z,63.85
2018-07-19T07:05:49.164Z,62.24
2018-07-19T07:08:19.264Z,61.23
2018-07-19T07:10:49.361Z,61.74
2018-07-19T07:13:19.713Z,61.64
2018-07-19T07:15:49.839Z,60.67
2018-07-19T07:18:19.965Z,61.86
2018-07-19T07:20:49.953Z,60.83
2018-07-19T07:23:19.859Z,59.12
2018-07-19T07:25:52.926Z,59.13
2018-07-19T07:28:24.459Z,59.04
2018-07-19T07:30:54.672Z,59.16
2018-07-19T07:33:24.873Z,58.84
2018-07-19T07:35:54.913Z,59.25
2018-07-19T07:38:25.415Z,58.53
2018-07-19T07:40:55.655Z,58.20
2018-07-19T07:43:26.284Z,58.41
2018-07-19T07:45:56.193Z,56.61
2018-07-19T07:48:27.233Z,56.20
2018-07-19T07:50:57.439Z,56.96
2018-07-19T07:53:27.829Z,56.65
2018-07-19T07:55:58.088Z,57.87
2018-07-19T07:58:28.219Z,57.53
2018-07-19T08:00:59.411Z,56.15
2018-07-19T08:03:29.400Z,56.21
2018-07-19T08:05:59.380Z,55.81
2018-07-19T08:08:29.609Z,56.23
2018-07-19T08:10:59.981Z,55.81
2018-07-19T08:13:30.486Z,55.57
2018-07-19T08:16:00.761Z,54.79
2018-07-19T08:18:30.901Z,55.57
2018-07-19T08:21:01.173Z,56.21
2018-07-19T08:23:31.701Z,56.32
2018-07-19T08:26:01.701Z,54.68
2018-07-19T08:28:31.749Z,54.53
2018-07-19T08:31:01.511Z,54.18
2018-07-19T08:33:32.046Z,54.05
2018-07-19T08:36:02.194Z,54.92
2018-07-19T08:38:32.841Z,55.71
2018-07-19T08:41:02.676Z,53.45
2018-07-19T08:43:33.135Z,53.90
2018-07-19T08:46:03.443Z,53.58
2018-07-19T08:48:33.496Z,53.08
2018-07-19T08:51:03.461Z,53.76
2018-07-19T08:53:33.695Z,52.67
2018-07-19T08:56:03.581Z,53.15
2018-07-19T08:58:34.048Z,52.91
2018-07-19T09:01:04.331Z,51.83
2018-07-19T09:03:34.605Z,52.69
2018-07-19T09:06:04.612Z,50.85
2018-07-19T09:08:34.776Z,51.83
2018-07-19T09:11:04.705Z,53.26
2018-07-19T09:13:34.737Z,53.62
2018-07-19T09:16:04.914Z,53.66
2018-07-19T09:18:34.946Z,52.86
2018-07-19T09:21:04.928Z,52.20
2018-07-19T09:23:34.863Z,51.37
2018-07-19T09:26:04.808Z,52.66
2018-07-19T09:28:34.643Z,51.59
2018-07-19T09:31:04.433Z,51.40
2018-07-19T09:33:34.513Z,51.35
2018-07-19T09:36:04.684Z,50.20
2018-07-19T09:38:34.879Z,51.13
2018-07-19T09:41:05.123Z,52.33
2018-07-19T09:43:35.793Z,50.85
2018-07-19T09:46:06.236Z,50.48
2018-07-19T09:48:36.228Z,51.95
2018-07-19T09:51:06.333Z,52.64
2018-07-19T09:53:36.415Z,50.79
2018-07-19T09:56:06.540Z,51.48
2018-07-19T09:58:37.060Z,50.20
2018-07-19T10:01:13.272Z,50.95
2018-07-19T10:03:44.081Z,50.48
2018-07-19T10:06:14.463Z,50.63
2018-07-19T10:08:44.920Z,49.32
2018-07-19T10:11:15.039Z,48.69
2018-07-19T10:13:45.549Z,49.25
2018-07-19T10:16:15.640Z,49.95
2018-07-19T10:18:45.980Z,49.54
2018-07-19T10:21:16.321Z,48.67
2018-07-19T10:23:46.588Z,49.51
2018-07-19T10:26:16.652Z,49.86
2018-07-19T10:28:46.589Z,47.73
2018-07-19T10:31:16.937Z,48.21
2018-07-19T10:33:47.056Z,47.59
2018-07-19T10:36:16.904Z,47.67
2018-07-19T10:38:47.044Z,48.52
2018-07-19T10:41:17.537Z,45.80
2018-07-19T10:43:47.801Z,48.16
2018-07-19T10:46:18.337Z,47.93
2018-07-19T10:48:48.412Z,48.24
2018-07-19T10:51:18.323Z,47.71
2018-07-19T10:53:48.392Z,47.17
2018-07-19T10:56:18.351Z,48.27
2018-07-19T10:58:48.745Z,48.98
2018-07-19T11:01:19.585Z,48.22
2018-07-19T11:03:49.709Z,48.77
2018-07-19T11:06:19.661Z,48.16
2018-07-19T11:08:50.161Z,48.26
2018-07-19T11:11:20.077Z,49.84
2018-07-19T11:13:50.563Z,50.12
2018-07-19T11:16:20.519Z,53.04
2018-07-19T11:18:50.677Z,57.60
2018-07-19T11:21:20.908Z,55.52
2018-07-19T11:23:51.017Z,55.24
2018-07-19T11:26:21.026Z,52.56
2018-07-19T11:28:51.056Z,51.63
2018-07-19T11:31:20.910Z,51.30
2018-07-19T11:33:51.494Z,54.57
2018-07-19T11:36:21.554Z,57.21
2018-07-19T11:38:52.153Z,58.07
2018-07-19T11:41:22.402Z,59.90
2018-07-19T11:43:52.646Z,60.57
2018-07-19T11:46:22.644Z,61.26
2018-07-19T11:48:52.797Z,61.57
2018-07-19T11:51:22.673Z,62.74
2018-07-19T11:53:52.732Z,61.05
2018-07-19T11:56:22.670Z,59.40
2018-07-19T11:58:52.841Z,55.84
2018-07-19T12:01:22.958Z,54.40
2018-07-19T12:03:53.517Z,56.00
2018-07-19T12:06:23.411Z,57.12
2018-07-19T12:08:53.463Z,58.88
2018-07-19T12:11:23.821Z,60.58
2018-07-19T12:13:53.724Z,60.63
2018-07-19T12:16:23.981Z,61.51
2018-07-19T12:18:53.935Z,63.31
2018-07-19T12:21:23.847Z,64.02
2018-07-19T12:23:54.337Z,63.69
2018-07-19T12:26:24.595Z,62.79
2018-07-19T12:28:54.428Z,65.56
2018-07-19T12:31:24.210Z,67.83
2018-07-19T12:33:54.275Z,64.74
2018-07-19T12:36:24.215Z,70.24
2018-07-19T12:38:54.425Z,66.51
2018-07-19T12:41:24.654Z,61.94
2018-07-19T12:43:54.710Z,61.84
2018-07-19T12:46:24.717Z,63.02
2018-07-19T12:48:54.641Z,64.62
2018-07-19T12:51:24.805Z,69.88
2018-07-19T12:55:06.374Z,74.33
2018-07-19T12:57:36.335Z,84.42
2018-07-19T13:00:06.876Z,81.44
2018-07-19T13:02:36.949Z,85.43
2018-07-19T13:05:06.876Z,80.27
2018-07-19T13:07:36.941Z,75.32
2018-07-19T13:10:06.904Z,75.92
2018-07-19T13:12:37.018Z,74.36
2018-07-19T13:15:07.685Z,74.71
2018-07-19T13:17:37.753Z,70.62
2018-07-19T13:20:07.967Z,71.84
2018-07-19T13:22:38.296Z,72.55
2018-07-19T13:25:08.116Z,71.17
2018-07-19T13:27:38.185Z,69.69
2018-07-19T13:30:07.964Z,59.62
2018-07-19T13:32:38.443Z,57.92
2018-07-19T13:35:08.597Z,57.12
2018-07-19T13:37:38.776Z,58.82
2018-07-19T13:40:08.741Z,59.14
2018-07-19T13:42:38.846Z,63.61
2018-07-19T13:45:09.244Z,66.69
2018-07-19T13:47:39.353Z,67.55
2018-07-19T13:50:09.525Z,68.22
2018-07-19T13:52:50.730Z,66.90
2018-07-19T13:55:20.825Z,57.73
2018-07-19T13:57:50.947Z,60.80
2018-07-19T14:00:20.951Z,58.25
2018-07-19T14:02:51.648Z,56.09
2018-07-19T14:05:21.649Z,51.66
2018-07-19T14:07:51.794Z,50.83
2018-07-19T14:10:22.002Z,50.87
2018-07-19T14:12:52.049Z,52.64
2018-07-19T14:15:22.356Z,55.08
2018-07-19T14:17:52.509Z,54.20
2018-07-19T14:20:22.485Z,55.78
2018-07-19T14:22:53.793Z,54.93
2018-07-19T14:25:23.799Z,50.23
2018-07-19T14:27:59.468Z,47.50
2018-07-19T14:30:29.466Z,51.08
2018-07-19T14:32:59.385Z,47.98
2018-07-19T14:35:29.404Z,49.51
2018-07-19T14:37:59.401Z,50.01
2018-07-19T14:40:29.393Z,46.90
2018-07-19T14:42:59.717Z,41.11
2018-07-19T14:45:29.973Z,40.70
2018-07-19T14:48:00.234Z,42.25
2018-07-19T14:50:30.134Z,43.30
2018-07-19T14:53:00.485Z,47.69
2018-07-19T14:55:30.398Z,49.05
2018-07-19T14:58:00.565Z,50.42
2018-07-19T15:00:30.560Z,50.82
2018-07-19T15:03:00.528Z,51.27
2018-07-19T15:05:30.727Z,51.44
2018-07-19T15:08:00.725Z,51.79
2018-07-19T15:10:30.785Z,52.09
2018-07-19T15:13:00.653Z,52.13
2018-07-19T15:15:30.578Z,51.09
2018-07-19T15:18:00.644Z,53.03
2018-07-19T15:20:30.663Z,53.25
2018-07-19T15:23:00.536Z,52.21
2018-07-19T15:25:30.613Z,52.14
2018-07-19T15:28:00.713Z,51.46
2018-07-19T15:30:30.453Z,50.74
2018-07-19T15:33:01.042Z,52.22
2018-07-19T15:35:31.036Z,51.83
2018-07-19T15:38:01.370Z,52.42
2018-07-19T15:40:31.281Z,52.76
2018-07-19T15:43:01.171Z,52.29
2018-07-19T15:45:31.038Z,52.71
2018-07-19T15:48:00.930Z,52.50
2018-07-19T15:50:30.732Z,49.57
2018-07-19T15:53:00.797Z,46.52
2018-07-19T15:55:30.757Z,45.85
2018-07-19T15:58:00.707Z,47.38
2018-07-19T16:00:30.633Z,48.44
2018-07-19T16:03:01.033Z,50.84
2018-07-19T16:05:31.184Z,50.41
2018-07-19T16:08:01.395Z,52.49
2018-07-19T16:10:31.805Z,53.69
2018-07-19T16:13:02.068Z,54.22
2018-07-19T16:15:32.274Z,55.18
2018-07-19T16:18:02.217Z,57.34
2018-07-19T16:20:32.682Z,58.11
2018-07-19T16:23:03.281Z,58.19
2018-07-19T16:25:33.485Z,58.96
2018-07-19T16:28:03.381Z,58.67
2018-07-19T16:30:33.137Z,58.39
2018-07-19T16:33:02.986Z,57.84
2018-07-19T16:35:34.142Z,58.70
2018-07-19T16:38:04.455Z,57.59
2018-07-19T16:40:34.591Z,58.30
2018-07-19T16:43:04.701Z,58.45
2018-07-19T16:45:34.529Z,58.22
2018-07-19T16:48:04.564Z,58.25
2018-07-19T16:50:34.550Z,58.23
2018-07-19T16:53:04.456Z,58.59
2018-07-19T16:55:34.558Z,58.72
2018-07-19T16:58:04.373Z,58.86
2018-07-19T17:00:35.531Z,58.76
2018-07-19T17:03:05.675Z,58.59
2018-07-19T17:05:35.611Z,59.44
2018-07-19T17:08:05.624Z,60.32
2018-07-19T17:10:35.545Z,60.63
2018-07-19T17:13:05.740Z,60.18
2018-07-19T17:15:35.676Z,60.37
2018-07-19T17:18:05.865Z,61.05
2018-07-19T17:20:35.880Z,61.12
2018-07-19T17:23:06.246Z,62.31
2018-07-19T17:25:36.243Z,63.25
2018-07-19T17:28:06.235Z,63.83
2018-07-19T17:30:36.229Z,63.90
2018-07-19T17:33:06.284Z,64.50
2018-07-19T17:35:36.520Z,65.07
2018-07-19T17:38:07.165Z,65.02
2018-07-19T17:40:37.215Z,65.07
2018-07-19T17:43:07.441Z,65.81
2018-07-19T17:45:37.486Z,66.49
2018-07-19T17:48:07.616Z,66.68
2018-07-19T17:50:37.814Z,67.13
2018-07-19T17:53:07.843Z,66.62
2018-07-19T17:55:37.892Z,67.73
2018-07-19T17:58:07.985Z,68.47
2018-07-19T18:00:37.905Z,68.83
2018-07-19T18:03:09.194Z,69.58
2018-07-19T18:05:39.035Z,69.83
2018-07-19T18:08:09.592Z,69.70
2018-07-19T18:10:39.599Z,70.22
2018-07-19T18:13:09.715Z,71.28
2018-07-19T18:15:39.672Z,72.77
2018-07-19T18:18:09.903Z,73.27
2018-07-19T18:20:39.882Z,74.34
2018-07-19T18:23:10.454Z,74.76
2018-07-19T18:25:40.394Z,75.35
2018-07-19T18:28:10.743Z,77.08
2018-07-19T18:30:40.647Z,77.26
2018-07-19T18:33:10.686Z,77.34
2018-07-19T18:35:40.556Z,77.02
2018-07-19T18:38:10.872Z,76.94
2018-07-19T18:40:40.825Z,76.83
2018-07-19T18:43:11.108Z,77.70
2018-07-19T18:45:41.053Z,77.75
2018-07-19T18:48:11.168Z,78.73
2018-07-19T18:50:41.099Z,79.45
2018-07-19T18:53:11.118Z,80.41
2018-07-19T18:55:40.953Z,80.10
2018-07-19T18:58:10.861Z,81.32
2018-07-19T19:00:40.924Z,82.43
2018-07-19T19:03:11.239Z,82.52
2018-07-19T19:05:41.471Z,83.29
2018-07-19T19:08:11.572Z,83.88
2018-07-19T19:10:41.855Z,84.53
2018-07-19T19:13:11.801Z,84.34
2018-07-19T19:15:41.878Z,83.88
2018-07-19T19:18:11.726Z,83.60
2018-07-19T19:20:41.893Z,84.77
2018-07-19T19:23:11.828Z,84.85
2018-07-19T19:25:41.977Z,84.68
2018-07-19T19:28:12.911Z,85.01
2018-07-19T19:30:43.096Z,85.12
2018-07-19T19:33:13.487Z,86.30
2018-07-19T19:35:43.463Z,84.85
2018-07-19T19:38:13.638Z,85.34
2018-07-19T19:40:43.484Z,83.91
2018-07-19T19:43:13.555Z,84.12
2018-07-19T19:45:43.509Z,85.15
2018-07-19T19:48:14.676Z,85.57
2018-07-19T19:50:44.548Z,85.86
2018-07-19T19:53:14.495Z,86.07
2018-07-19T19:55:44.391Z,86.96
2018-07-19T19:58:14.756Z,88.45
2018-07-19T20:00:44.760Z,88.35
2018-07-19T20:03:15.022Z,88.27
2018-07-19T20:05:45.951Z,88.58
2018-07-19T20:08:15.899Z,88.48
2018-07-19T20:10:46.844Z,87.13
2018-07-19T20:13:16.801Z,87.65
2018-07-19T20:15:46.772Z,87.52
2018-07-19T20:18:16.651Z,87.74
2018-07-19T20:20:46.684Z,86.99
2018-07-19T20:23:16.821Z,87.92
2018-07-19T20:25:46.856Z,87.76
2018-07-19T20:28:16.875Z,87.34
2018-07-19T20:30:47.068Z,87.16
2018-07-19T20:33:16.952Z,87.21
2018-07-19T20:35:46.802Z,86.76
2018-07-19T20:38:16.809Z,87.21
2018-07-19T20:40:47.061Z,86.79
2018-07-19T20:43:17.016Z,86.24
2018-07-19T20:45:47.061Z,87.06
2018-07-19T20:48:17.139Z,86.60
2018-07-19T20:50:47.090Z,86.87
2018-07-19T20:53:16.963Z,86.16
2018-07-19T20:55:46.855Z,86.39
2018-07-19T20:58:16.950Z,86.86
2018-07-19T21:00:46.987Z,87.35
2018-07-19T21:03:17.310Z,87.48
2018-07-19T21:05:47.325Z,87.43
2018-07-19T21:08:17.350Z,87.97
2018-07-19T21:10:47.206Z,88.13
2018-07-19T21:13:17.400Z,87.19
2018-07-19T21:15:47.337Z,87.40
2018-07-19T21:18:17.389Z,87.65
2018-07-19T21:20:47.300Z,88.05
2018-07-19T21:23:17.953Z,87.70
2018-07-19T21:25:48.362Z,88.09
2018-07-19T21:28:18.604Z,88.63
2018-07-19T21:30:48.492Z,88.82
2018-07-19T21:33:18.773Z,89.10
2018-07-19T21:35:48.703Z,89.08
2018-07-19T21:38:18.462Z,89.49
2018-07-19T21:40:48.311Z,89.99
2018-07-19T21:43:18.804Z,90.68
2018-07-19T21:45:48.976Z,90.93
2018-07-19T21:48:19.213Z,90.56
2018-07-19T21:50:49.015Z,90.87
2018-07-19T21:53:19.047Z,90.81
2018-07-19T21:55:48.908Z,91.00
2018-07-19T21:58:19.088Z,91.23
2018-07-19T22:00:54.299Z,90.78
2018-07-19T22:03:24.284Z,91.46
2018-07-19T22:05:54.241Z,91.03
2018-07-19T22:08:24.349Z,90.65
2018-07-19T22:10:54.365Z,91.43
2018-07-19T22:13:24.368Z,90.93
2018-07-19T22:15:54.595Z,91.18
2018-07-19T22:18:25.421Z,90.88
2018-07-19T22:20:55.347Z,90.71
2018-07-19T22:23:25.391Z,89.88
2018-07-19T22:25:55.231Z,89.90
2018-07-19T22:28:25.199Z,90.11
2018-07-19T22:30:55.484Z,89.72
2018-07-19T22:33:25.823Z,89.97
2018-07-19T22:35:55.703Z,91.01
2018-07-19T22:38:25.716Z,90.92
2018-07-19T22:40:55.796Z,90.84
2018-07-19T22:43:25.752Z,90.84
2018-07-19T22:45:56.319Z,90.39
2018-07-19T22:48:26.150Z,89.57
2018-07-19T22:50:56.133Z,89.57
2018-07-19T22:53:26.453Z,90.11
2018-07-19T22:55:56.484Z,90.10
2018-07-19T22:58:26.633Z,90.20
2018-07-19T23:00:57.320Z,89.93
2018-07-19T23:03:27.717Z,90.16
2018-07-19T23:05:57.698Z,91.01
2018-07-19T23:08:27.737Z,89.86
2018-07-19T23:10:58.049Z,90.85
2018-07-19T23:13:28.113Z,91.05
2018-07-19T23:15:57.953Z,90.25
2018-07-19T23:18:27.832Z,89.67
2018-07-19T23:20:57.679Z,89.41
2018-07-19T23:23:28.001Z,88.34
2018-07-19T23:25:58.095Z,88.24
2018-07-19T23:28:28.496Z,88.63
2018-07-19T23:30:58.491Z,88.99
2018-07-19T23:33:28.939Z,88.43
2018-07-19T23:36:02.585Z,89.27
2018-07-19T23:38:36.428Z,88.88
2018-07-19T23:41:10.535Z,89.84
2018-07-19T23:43:42.600Z,90.49
2018-07-19T23:46:18.924Z,91.08
2018-07-19T23:48:49.127Z,91.73
2018-07-19T23:51:19.164Z,92.01
2018-07-19T23:53:49.272Z,92.35
2018-07-19T23:56:19.157Z,91.92
2018-07-19T23:58:49.004Z,92.41
